Time;durP1;ratioP1;P1;durP2;ratioP2;P2;SDS_P1;SDS_P2;PMS_P1;PMS_P2;Temp;Humidity;BMP_temperature;BMP_pressure;BME280_temperature;BME280_humidity;BME280_pressure;Samples;Min_cycle;Max_cycle;Signal;HPM_P1;HPM_P2
2022/06/08 00:00:58;;;;;;;9.40;6.03;;;;;;;;;;5060997;28;20048;-91
2022/06/08 00:03:26;;;;;;;17.38;6.43;;;;;;;;;;5060426;28;20534;-89
2022/06/08 00:05:52;;;;;;;8.45;5.75;;;;;;;;;;5060939;28;20044;-92
2022/06/08 00:08:19;;;;;;;9.18;6.47;;;;;;;;;;5076741;28;20071;-82
2022/06/08 00:10:45;;;;;;;11.73;6.88;;;;;;;;;;5075973;28;20055;-81
2022/06/08 00:13:12;;;;;;;12.23;6.72;;;;;;;;;;5059142;28;20048;-82
2022/06/08 00:15:38;;;;;;;8.35;7.05;;;;;;;;;;5075868;28;20510;-82
2022/06/08 00:18:06;;;;;;;9.63;5.75;;;;;;;;;;5076182;28;20089;-82
2022/06/08 00:20:32;;;;;;;7.47;6.68;;;;;;;;;;5075840;28;20047;-82
2022/06/08 00:22:58;;;;;;;9.77;6.40;;;;;;;;;;5076072;28;20059;-82
2022/06/08 00:25:24;;;;;;;11.30;6.28;;;;;;;;;;5058997;28;20104;-82
2022/06/08 00:27:50;;;;;;;12.93;6.68;;;;;;;;;;5059895;28;20049;-82
2022/06/08 00:30:16;;;;;;;9.68;6.40;;;;;;;;;;5059035;28;20047;-82
2022/06/08 00:32:42;;;;;;;11.90;6.60;;;;;;;;;;5074608;28;20040;-82
2022/06/08 00:35:09;;;;;;;9.93;6.28;;;;;;;;;;5075465;28;20044;-82
2022/06/08 00:37:35;;;;;;;10.77;6.53;;;;;;;;;;5059055;28;20044;-81
2022/06/08 00:40:01;;;;;;;8.90;6.47;;;;;;;;;;5075502;28;20043;-82
2022/06/08 00:42:27;;;;;;;8.98;6.85;;;;;;;;;;5042196;28;20083;-82
2022/06/08 00:45:07;;;;;;;9.43;6.43;;;;;;;;;;5059064;28;20047;-82
2022/06/08 00:47:38;;;;;;;14.15;7.28;;;10.80;99.90;;;;;;5059782;28;20044;-82
2022/06/08 00:50:06;;;;;;;12.05;6.57;;;;;;;;;;5059092;28;20475;-82
2022/06/08 00:52:34;;;;;;;8.05;5.50;;;;;;;;;;5059051;28;20051;-82
2022/06/08 00:55:02;;;;;;;10.20;5.70;;;;;;;;;;5058460;28;20043;-81
2022/06/08 00:57:43;;;;;;;9.68;6.88;;;;;;;;;;5058574;28;20051;-82
2022/06/08 01:00:20;;;;;;;9.93;5.93;;;;;;;;;;5075321;28;20044;-82
2022/06/08 01:02:46;;;;;;;9.80;6.55;;;;;;;;;;5058514;28;20079;-82
2022/06/08 01:05:28;;;;;;;8.45;6.65;;;;;;;;;;5058447;28;20047;-82
2022/06/08 01:07:56;;;;;;;9.20;6.03;;;;;;;;;;5058397;28;20113;-82
2022/06/08 01:10:23;;;;;;;9.60;7.78;;;;;;;;;;5075105;28;20044;-81
2022/06/08 01:12:50;;;;;;;15.60;6.47;;;;;;;;;;5074997;28;20075;-82
2022/06/08 01:15:18;;;;;;;9.38;6.65;;;;;;;;;;5058597;28;20040;-82
2022/06/08 01:17:44;;;;;;;8.52;6.80;;;;;;;;;;5075138;28;20040;-82
2022/06/08 01:20:10;;;;;;;9.63;6.00;;;;;;;;;;5059511;28;20047;-82
2022/06/08 01:22:36;;;;;;;10.18;6.38;;;;;;;;;;5058341;28;20044;-82
2022/06/08 01:25:04;;;;;;;12.00;6.15;;;;;;;;;;5058206;28;20040;-82
2022/06/08 01:27:30;;;;;;;6.38;5.65;;;;;;;;;;5074954;28;20496;-82
2022/06/08 01:29:59;;;;;;;7.75;5.70;;;;;;;;;;5074860;28;20127;-82
2022/06/08 01:32:25;;;;;;;12.70;5.57;;;;;;;;;;5075220;28;20055;-81
2022/06/08 01:35:06;;;;;;;8.55;5.93;;;;;;;;;;5058141;28;20404;-82
2022/06/08 01:37:32;;;;;;;7.57;5.55;;;;;;;;;;5058347;28;20071;-82
2022/06/08 01:40:04;;;;;;;6.38;5.28;;;;;;;;;;5074945;28;20504;-82
2022/06/08 01:42:33;;;;;;;6.60;5.25;;;;;;;;;;5058375;28;20131;-82
2022/06/08 01:48:18;;;;;;;9.10;5.70;;;;;;;;;;5078550;28;20054;-82
2022/06/08 01:50:56;;;;;;;9.40;5.63;;;;;;;;;;5081001;28;20437;-87
2022/06/08 01:53:35;;;;;;;10.10;5.35;;;;;;;;;;5065297;28;20083;-92
2022/06/08 01:56:04;;;;;;;8.10;6.68;;;;;;;;;;5065208;28;20044;-92
2022/06/08 01:58:33;;;;;;;12.00;6.45;;;;;;;;;;5082186;28;20093;-89
2022/06/08 02:01:03;;;;;;;6.68;5.60;;;;;;;;;;5064789;28;20093;-94
2022/06/08 02:03:33;;;;;;;15.20;5.95;;;;;;;;;;5064738;28;20063;-88
2022/06/08 02:06:11;;;;;;;9.25;5.20;;;;;;;;;;5063923;28;20040;-91
2022/06/08 02:08:37;;;;;;;6.53;5.82;;;;;;;;;;5060015;28;20611;-93
2022/06/08 02:11:12;;;;;;;8.07;5.80;;;;;;;;;;5060276;28;20037;-91
2022/06/08 02:13:50;;;;;;;7.93;6.05;;;;;;;;;;5060930;28;20051;-94
2022/06/08 02:16:19;;;;;;;9.55;5.95;;;;;;;;;;5061670;28;20044;-92
2022/06/08 02:18:49;;;;;;;9.18;5.75;;;;;;;;;;5063627;28;20086;-91
2022/06/08 02:21:18;;;;;;;8.73;5.32;;;;;;;;;;5079765;28;20086;-91
2022/06/08 02:23:48;;;;;;;8.52;6.05;;;;;;;;;;5063471;28;20135;-93
2022/06/08 02:26:41;;;;;;;9.30;6.40;;;;;;;;;;5062789;28;20050;-91
2022/06/08 02:29:10;;;;;;;7.07;6.20;;;;;;;;;;5059290;28;20048;-88
2022/06/08 02:31:40;;;;;;;8.00;5.53;;;;;;;;;;5063017;28;20052;-89
2022/06/08 02:34:29;;;;;;;11.73;6.47;;;;;;;;;;5062333;28;20044;-82
2022/06/08 02:37:01;;;;;;;13.10;5.68;;;;;;;;;;5077785;28;20102;-84
2022/06/08 02:39:45;;;;;;;12.73;6.03;;;10.10;99.90;;;;;;5061410;28;20044;-84
2022/06/08 02:42:14;;;;;;;7.60;5.88;;;;;;;;;;5061296;28;20131;-85
2022/06/08 02:44:41;;;;;;;9.07;5.78;;;;;;;;;;5077961;28;20442;-84
2022/06/08 02:47:07;;;;;;;13.75;5.70;;;;;;;;;;5077674;28;20054;-84
2022/06/08 02:49:34;;;;;;;7.85;6.38;;;;;;;;;;5060908;28;20036;-84
2022/06/08 02:52:03;;;;;;;10.93;6.88;;;;;;;;;;5061164;28;20118;-83
2022/06/08 02:54:30;;;;;;;11.27;6.85;;;;;;;;;;5060548;28;20564;-85
2022/06/08 02:57:15;;;;;;;9.93;6.68;;;;;;;;;;5076654;28;20044;-84
2022/06/08 02:59:45;;;;;;;10.07;7.13;;;;;;;;;;5060646;28;20040;-87
2022/06/08 03:02:11;;;;;;;17.70;6.78;;;;;;;;;;5077182;28;20135;-85
2022/06/08 03:04:42;;;;;;;12.32;8.23;;;;;;;;;;5060472;28;20127;-84
2022/06/08 03:07:15;;;;;;;13.00;7.95;;;;;;;;;;5060259;28;20047;-84
2022/06/08 03:09:43;;;;;;;18.15;7.95;;;;;;;;;;5060540;28;20155;-86
2022/06/08 03:12:12;;;;;;;15.02;8.32;;;;;;;;;;5060353;28;20599;-83
2022/06/08 03:14:39;;;;;;;11.57;8.50;;;;;;;;;;5077377;28;20066;-84
2022/06/08 03:17:10;;;;;;;12.23;8.05;;;;;;;;;;5060740;28;20044;-84
2022/06/08 03:19:37;;;;;;;16.15;9.13;;;;;;;;;;5060346;28;20496;-84
2022/06/08 03:22:04;;;;;;;13.60;9.25;;;;;;;;;;5077041;28;20111;-84
2022/06/08 03:24:30;;;;;;;12.70;7.88;;;;;;;;;;5060293;28;20040;-84
2022/06/08 03:26:58;;;;;;;16.92;9.43;;;;;;;;;;5060081;28;20039;-84
2022/06/08 03:29:26;;;;;;;14.20;8.18;;;;;;;;;;5078537;28;20047;-86
2022/06/08 03:31:52;;;;;;;14.15;8.80;;;;;;;;;;5062003;28;20473;-90
2022/06/08 03:34:18;;;;;;;13.40;8.32;;;;;;;;;;5079779;28;20137;-89
2022/06/08 03:36:44;;;;;;;16.23;9.10;;;;;;;;;;5078630;28;20036;-88
2022/06/08 03:39:11;;;;;;;13.05;8.65;;;;;;;;;;5078248;28;20085;-88
2022/06/08 03:41:37;;;;;;;12.50;9.00;;;;;;;;;;5079291;28;20130;-88
2022/06/08 03:44:04;;;;;;;12.43;9.13;;;;;;;;;;5062150;28;20036;-89
2022/06/08 03:46:35;;;;;;;14.23;8.80;;;10.10;99.90;;;;;;5060894;28;20130;-92
2022/06/08 03:49:01;;;;;;;16.25;9.30;;;;;;;;;;5061193;28;20040;-91
2022/06/08 03:51:28;;;;;;;13.88;8.32;;;;;;;;;;5061239;28;20048;-90
2022/06/08 03:53:56;;;;;;;12.48;7.88;;;;;;;;;;5061343;28;20054;-90
2022/06/08 03:56:24;;;;;;;11.57;8.45;;;;;;;;;;5078335;28;20492;-88
2022/06/08 03:58:50;;;;;;;14.35;8.85;;;;;;;;;;5061535;28;20557;-82
2022/06/08 04:01:16;;;;;;;16.55;9.30;;;;;;;;;;5079230;28;20043;-91
2022/06/08 04:03:42;;;;;;;14.82;9.40;;;;;;;;;;5061925;28;20671;-88
2022/06/08 04:06:08;;;;;;;10.40;8.48;;;;;;;;;;5061103;28;20130;-88
2022/06/08 04:08:36;;;;;;;11.57;8.95;;;;;;;;;;5061441;28;20496;-87
2022/06/08 04:11:02;;;;;;;13.38;9.20;;;;;;;;;;5061265;28;20044;-92
2022/06/08 04:13:28;;;;;;;16.30;10.25;;;;;;;;;;5078788;28;20043;-90
2022/06/08 04:15:54;;;;;;;16.90;9.98;;;;;;;;;;5059340;28;20040;-85
2022/06/08 04:18:21;;;;;;;13.50;9.80;;;;;;;;;;5094476;28;20436;-90
2022/06/08 04:20:49;;;;;;;18.27;10.43;;;;;;;;;;5094449;28;20036;-87
2022/06/08 04:23:16;;;;;;;17.00;10.15;;;;;;;;;;5059493;28;20090;-91
2022/06/08 04:25:43;;;;;;;18.85;11.18;;;;;;;;;;5094355;28;20532;-86
2022/06/08 04:28:09;;;;;;;16.23;11.93;;;;;;;;;;5094221;28;20040;-86
2022/06/08 04:30:35;;;;;;;18.30;11.75;;;;;;;;;;5094244;28;20040;-88
2022/06/08 04:33:01;;;;;;;17.90;11.68;;;;;;;;;;5075775;28;20489;-88
2022/06/08 04:35:27;;;;;;;18.45;11.85;;;;;;;;;;5076608;28;20044;-90
2022/06/08 04:37:54;;;;;;;23.00;13.30;;;;;;;;;;5075803;28;20044;-89
2022/06/08 04:40:21;;;;;;;18.08;12.52;;;;;;;;;;5076064;28;20109;-89
2022/06/08 04:42:47;;;;;;;20.67;13.63;;;;;;;;;;5093749;28;20534;-91
2022/06/08 04:45:13;;;;;;;29.70;15.00;;;;;;;;;;5075541;28;20127;-90
2022/06/08 04:47:39;;;;;;;25.02;14.82;;;;;;;;;;5076702;28;20400;-90
2022/06/08 04:50:07;;;;;;;22.48;14.35;;;;;;;;;;5059051;28;20082;-91
2022/06/08 04:52:33;;;;;;;23.20;13.52;;;;;;;;;;5059258;28;20488;-90
2022/06/08 04:55:00;;;;;;;22.30;13.98;;;;;;;;;;5059019;28;20476;-88
2022/06/08 04:57:26;;;;;;;28.98;13.40;;;;;;;;;;5059246;28;20071;-91
2022/06/08 04:59:52;;;;;;;19.67;13.77;;;;;;;;;;5058859;28;20040;-88
2022/06/08 05:05:07;;;;;;;26.13;15.30;;;;;;;;;;5075283;28;20044;-89
2022/06/08 05:07:33;;;;;;;19.70;13.82;;;;;;;;;;5075256;28;20106;-86
2022/06/08 05:09:59;;;;;;;21.13;14.40;;;;;;;;;;5077055;28;20095;-87
2022/06/08 05:12:25;;;;;;;19.48;14.55;;;;;;;;;;5059801;28;20048;-86
2022/06/08 05:14:51;;;;;;;21.75;14.68;;;;;;;;;;5061029;28;20044;-88
2022/06/08 05:17:17;;;;;;;17.73;14.45;;;;;;;;;;5060689;28;20050;-88
2022/06/08 05:19:44;;;;;;;24.77;15.43;;;;;;;;;;5080881;28;20465;-93
2022/06/08 05:22:10;;;;;;;26.63;15.90;;;;;;;;;;5082439;28;20523;-86
2022/06/08 05:24:36;;;;;;;22.70;15.85;;;;;;;;;;5082307;28;20044;-89
2022/06/08 05:27:03;;;;;;;24.02;15.40;;;;;;;;;;5065654;28;20044;-89
2022/06/08 05:29:30;;;;;;;21.23;15.18;;;;;;;;;;5064903;28;20127;-90
2022/06/08 05:31:56;;;;;;;19.63;15.10;;;;;;;;;;5065088;28;20101;-86
2022/06/08 05:34:24;;;;;;;20.20;15.52;;;;;;;;;;5080803;28;20040;-84
2022/06/08 05:36:50;;;;;;;32.30;16.52;;;;;;;;;;5063745;28;20123;-85
2022/06/08 05:39:16;;;;;;;28.30;15.13;;;;;;;;;;5080120;28;20052;-82
2022/06/08 05:41:42;;;;;;;24.10;15.45;;;;;;;;;;5064633;28;20040;-85
2022/06/08 05:44:09;;;;;;;21.05;14.88;;;;;;;;;;5065315;28;20403;-85
2022/06/08 05:46:35;;;;;;;24.23;15.82;;;;;;;;;;5081229;28;20476;-87
2022/06/08 05:49:01;;;;;;;20.48;14.93;;;;;;;;;;5064674;28;20048;-84
2022/06/08 05:51:27;;;;;;;24.20;16.25;;;;;;;;;;5079858;28;20553;-83
2022/06/08 05:53:53;;;;;;;23.75;15.20;;;;;;;;;;5062752;28;20481;-82
2022/06/08 05:56:19;;;;;;;22.38;14.63;;;;;;;;;;5079600;28;20068;-82
2022/06/08 05:58:45;;;;;;;22.70;14.90;;;;;;;;;;5079187;28;20123;-82
2022/06/08 06:01:11;;;;;;;23.60;15.55;;;;;;;;;;5078417;28;20082;-83
2022/06/08 06:03:37;;;;;;;21.52;15.05;;;;;;;;;;5096798;28;20068;-83
2022/06/08 06:06:04;;;;;;;19.83;14.48;;;;;;;;;;5096477;28;20044;-82
2022/06/08 06:08:30;;;;;;;24.15;15.40;;;;;;;;;;5078121;28;20143;-82
2022/06/08 06:10:56;;;;;;;20.60;15.35;;;;;;;;;;5078138;28;20507;-82
2022/06/08 06:13:22;;;;;;;23.45;14.77;;;;;;;;;;5078424;28;20134;-84
2022/06/08 06:15:48;;;;;;;23.85;15.52;;;;;;;;;;5078100;28;20043;-83
2022/06/08 06:18:15;;;;;;;20.38;15.07;;;;;;;;;;5061469;28;20039;-83
2022/06/08 06:20:41;;;;;;;19.90;13.60;;;;;;;;;;5078101;28;20048;-82
2022/06/08 06:23:07;;;;;;;20.25;13.57;;;;;;;;;;5078057;28;20055;-82
2022/06/08 06:25:33;;;;;;;18.45;13.48;;;;;;;;;;5061347;28;20130;-83
2022/06/08 06:27:59;;;;;;;19.23;13.52;;;;;;;;;;5061233;28;20040;-82
2022/06/08 06:30:26;;;;;;;24.17;14.45;;;;;;;;;;5078100;28;20451;-82
2022/06/08 06:32:52;;;;;;;24.08;13.13;;;;;;;;;;5061310;28;20070;-83
2022/06/08 06:35:25;;;;;;;18.00;13.10;;;14.40;99.90;;;;;;5060992;28;20047;-83
2022/06/08 06:37:52;;;;;;;22.00;11.68;;;;;;;;;;5078038;28;20051;-82
2022/06/08 06:40:20;;;;;;;18.17;13.02;;;14.60;99.90;;;;;;5077857;28;20075;-82
2022/06/08 06:42:46;;;;;;;19.52;13.68;;;;;;;;;;5077696;28;20067;-82
2022/06/08 06:45:13;;;;;;;19.38;12.13;;;;;;;;;;5077666;28;20097;-82
2022/06/08 06:47:39;;;;;;;18.52;12.15;;;;;;;;;;5060914;28;20040;-81
2022/06/08 06:50:07;;;;;;;16.45;12.20;;;15.00;99.90;;;;;;5060868;28;20044;-81
2022/06/08 06:52:33;;;;;;;17.00;11.40;;;;;;;;;;5060999;28;20450;-81
2022/06/08 06:54:59;;;;;;;21.23;11.88;;;;;;;;;;5077369;28;20090;-81
2022/06/08 06:57:25;;;;;;;18.42;11.10;;;;;;;;;;5077722;28;20109;-81
2022/06/08 06:59:51;;;;;;;16.38;10.85;;;;;;;;;;5060681;28;20043;-81
2022/06/08 07:02:20;;;;;;;18.20;11.50;;;15.40;99.90;;;;;;5060908;28;20055;-81
2022/06/08 07:04:47;;;;;;;15.10;11.40;;;;;;;;;;5060581;28;20107;-81
2022/06/08 07:07:16;;;;;;;15.52;11.50;;;;;;;;;;5077095;28;20047;-81
2022/06/08 07:09:42;;;;;;;14.65;9.85;;;;;;;;;;5060522;28;20450;-83
2022/06/08 07:12:12;;;;;;;17.02;10.18;;;15.70;99.90;;;;;;5060360;28;20089;-82
2022/06/08 07:14:38;;;;;;;13.60;10.00;;;;;;;;;;5060496;28;20040;-82
2022/06/08 07:17:04;;;;;;;15.07;9.73;;;;;;;;;;5060643;28;20500;-82
2022/06/08 07:19:30;;;;;;;13.23;10.63;;;;;;;;;;5076931;28;20076;-85
2022/06/08 07:21:56;;;;;;;13.18;9.32;;;;;;;;;;5061392;28;20044;-85
2022/06/08 07:24:24;;;;;;;12.70;9.20;;;;;;;;;;5060574;28;20040;-85
2022/06/08 07:26:50;;;;;;;10.18;8.23;;;;;;;;;;5076771;28;20093;-85
2022/06/08 07:29:17;;;;;;;12.18;8.13;;;;;;;;;;5060739;28;20081;-86
2022/06/08 07:31:43;;;;;;;15.35;8.38;;;16.30;99.90;;;;;;5076662;28;20082;-85
2022/06/08 07:34:14;;;;;;;11.98;9.10;;;16.10;99.90;;;;;;5076358;28;20087;-86
2022/06/08 07:36:40;;;;;;;11.82;8.32;;;;;;;;;;5059802;28;20040;-85
2022/06/08 07:39:07;;;;;;;10.30;8.27;;;;;;;;;;5060358;28;20044;-85
2022/06/08 07:41:33;;;;;;;11.15;8.55;;;;;;;;;;5076064;28;20043;-85
2022/06/08 07:43:59;;;;;;;14.07;8.13;;;;;;;;;;5060198;28;20060;-85
2022/06/08 07:46:26;;;;;;;13.25;7.78;;;;;;;;;;5059814;28;20055;-86
2022/06/08 07:51:36;;;;;;;10.32;7.68;;;;;;;;;;5076214;28;20136;-85
2022/06/08 07:54:03;;;;;;;8.65;7.32;;;;;;;;;;5060418;28;20189;-88
2022/06/08 07:56:29;;;;;;;13.50;8.55;;;;;;;;;;5059520;28;20047;-88
2022/06/08 07:58:55;;;;;;;9.60;7.35;;;;;;;;;;5076137;28;20044;-89
2022/06/08 08:01:21;;;;;;;11.15;7.78;;;;;;;;;;5059655;28;20119;-86
2022/06/08 08:03:47;;;;;;;11.90;8.10;;;;;;;;;;5059381;28;20127;-88
2022/06/08 08:06:13;;;;;;;14.07;8.10;;;;;;;;;;5059211;28;20047;-85
2022/06/08 08:08:39;;;;;;;13.93;7.75;;;;;;;;;;5059308;28;20059;-86
2022/06/08 08:11:06;;;;;;;8.40;7.10;;;16.80;99.90;;;;;;5059208;28;20044;-88
2022/06/08 08:13:32;;;;;;;9.45;7.68;;;;;;;;;;5076366;28;20058;-88
2022/06/08 08:15:58;;;;;;;9.38;8.38;;;;;;;;;;5078411;28;20047;-88
2022/06/08 08:18:24;;;;;;;13.32;6.63;;;;;;;;;;5059186;28;20131;-83
2022/06/08 08:20:50;;;;;;;10.98;7.47;;;;;;;;;;5059199;28;20050;-82
2022/06/08 08:23:17;;;;;;;10.77;7.15;;;;;;;;;;5060310;28;20100;-83
2022/06/08 08:25:43;;;;;;;10.65;7.25;;;;;;;;;;5059034;28;20040;-83
2022/06/08 08:28:09;;;;;;;7.72;6.28;;;17.30;99.90;;;;;;5075653;28;20381;-83
2022/06/08 08:30:36;;;;;;;9.07;5.30;;;;;;;;;;5058900;28;20036;-82
2022/06/08 08:33:02;;;;;;;6.10;5.15;;;;;;;;;;5059166;28;20063;-83
2022/06/08 08:35:28;;;;;;;12.32;6.05;;;;;;;;;;5059003;28;20052;-83
2022/06/08 08:37:55;;;;;;;4.93;3.70;;;17.90;99.90;;;;;;5059123;28;20075;-82
2022/06/08 08:40:38;;;;;;;4.57;3.30;;;17.60;99.90;;;;;;5075814;28;20043;-82
2022/06/08 08:43:06;;;;;;;4.93;3.85;;;;;;;;;;5058841;28;20083;-83
2022/06/08 08:45:41;;;;;;;4.32;3.58;;;17.90;99.90;;;;;;5075609;28;20098;-83
2022/06/08 08:48:15;;;;;;;4.47;3.47;;;18.30;99.90;;;;;;5075487;28;20114;-82
2022/06/08 08:51:06;;;;;;;4.95;2.90;;;18.10;99.90;;;;;;5075303;28;20044;-83
2022/06/08 08:53:40;;;;;;;5.40;2.58;;;18.10;99.90;;;;;;5057761;28;20040;-82
2022/06/08 08:56:23;;;;;;;4.30;2.42;;;18.10;99.90;;;;;;5058609;28;20051;-82
2022/06/08 08:58:49;;;;;;;5.93;2.25;;;18.10;99.90;;;;;;5058637;28;20040;-82
2022/06/08 09:01:29;;;;;;;3.38;2.42;;;18.20;99.90;;;;;;5075232;28;20090;-83
2022/06/08 09:04:05;;;;;;;2.90;2.30;;;18.20;99.90;;;;;;5075293;28;20040;-83
2022/06/08 09:06:33;;;;;;;3.45;3.15;;;18.20;99.90;;;;;;5060689;28;20040;-91
2022/06/08 09:09:02;;;;;;;4.57;2.40;;;18.00;99.90;;;;;;5062326;28;20051;-83
2022/06/08 09:11:37;;;;;;;3.83;2.95;;;18.30;99.90;;;;;;5079073;28;20047;-87
2022/06/08 09:14:03;;;;;;;3.70;2.72;;;;;;;;;;5062661;28;20075;-90
2022/06/08 09:16:35;;;;;;;5.43;2.88;;;18.20;99.90;;;;;;5063813;28;20059;-92
2022/06/08 09:19:01;;;;;;;6.28;2.50;;;;;;;;;;5064089;28;20040;-90
2022/06/08 09:21:33;;;;;;;4.05;2.10;;;18.30;99.90;;;;;;5063052;28;20065;-87
2022/06/08 09:24:28;;;;;;;4.35;2.42;;;18.30;99.90;;;;;;5063516;28;20081;-90
2022/06/08 09:27:22;;;;;;;2.35;1.83;;;18.60;99.90;;;;;;5080021;28;20051;-82
2022/06/08 09:29:53;;;;;;;2.42;1.73;;;18.60;99.90;;;;;;5080132;28;20571;-85
2022/06/08 09:32:43;;;;;;;4.70;1.70;;;18.70;99.90;;;;;;5079639;28;20396;-86
2022/06/08 09:35:29;;;;;;;2.47;1.40;;;18.70;99.90;;;;;;4999185;28;20053;-83
2022/06/08 09:38:02;;;;;;;2.58;1.95;;;18.90;99.90;;;;;;4977850;28;20038;-84
2022/06/08 09:40:42;;;;;;;2.97;2.10;;;18.50;99.90;;;;;;4980628;28;20137;-82
2022/06/08 09:43:10;;;;;;;1.77;1.67;;;18.70;99.90;;;;;;5012868;28;20050;-84
2022/06/08 09:45:36;;;;;;;2.28;1.65;;;;;;;;;;4978867;28;20193;-81
2022/06/08 09:53:43;;;;;;;4.20;2.50;;;19.00;99.90;;;;;;4995117;28;20093;-81
2022/06/08 09:56:34;;;;;;;3.03;2.60;;;19.10;99.90;;;;;;4978621;28;20085;-81
2022/06/08 09:59:43;;;;;;;4.78;1.77;;;19.00;99.90;;;;;;4979017;28;20170;-82
2022/06/08 10:02:24;;;;;;;2.63;2.42;;;18.90;99.90;;;;;;4978782;28;20045;-81
2022/06/08 10:05:11;;;;;;;5.45;2.72;;;18.90;99.90;;;;;;4980020;28;20372;-81
2022/06/08 10:07:47;;;;;;;2.60;2.00;;;18.80;99.90;;;;;;4982315;28;20053;-82
2022/06/08 10:10:23;;;;;;;2.60;1.98;;;18.70;99.90;;;;;;4982176;28;20049;-81
2022/06/08 10:13:10;;;;;;;2.40;1.60;;;18.70;99.90;;;;;;5063302;28;20055;-81
2022/06/08 10:15:49;;;;;;;3.63;2.08;;;19.00;99.90;;;;;;5062064;28;20040;-82
2022/06/08 10:18:24;;;;;;;2.08;1.85;;;19.00;99.90;;;;;;5063590;28;20040;-81
2022/06/08 10:21:09;;;;;;;4.22;2.00;;;19.30;99.90;;;;;;5067375;28;20393;-82
2022/06/08 10:24:13;;;;;;;3.50;2.55;;;19.00;99.90;;;;;;5083403;28;20052;-81
2022/06/08 10:27:03;;;;;;;3.57;1.73;;;19.30;99.90;;;;;;5003168;28;20049;-81
2022/06/08 10:29:59;;;;;;;2.40;1.85;;;19.60;99.90;;;;;;5003102;28;20316;-81
2022/06/08 10:32:33;;;;;;;1.92;1.63;;;19.30;99.90;;;;;;4929727;29;20110;-81
2022/06/08 10:35:13;;;;;;;2.58;1.92;;;19.50;99.90;;;;;;4945305;29;20055;-81
2022/06/08 10:37:41;;;;;;;3.00;2.05;;;19.50;99.90;;;;;;4944839;29;20123;-81
2022/06/08 10:40:17;;;;;;;2.50;2.00;;;19.70;99.90;;;;;;4945613;28;20396;-81
2022/06/08 10:42:43;;;;;;;4.57;2.08;;;19.70;99.90;;;;;;4943720;29;20047;-81
2022/06/08 10:45:27;;;;;;;3.40;2.60;;;20.10;99.90;;;;;;4939776;29;20058;-82
2022/06/08 10:48:03;;;;;;;6.88;2.80;;;19.90;99.90;;;;;;4955789;29;20059;-82
2022/06/08 10:50:35;;;;;;;2.53;2.33;;;20.00;99.90;;;;;;4955799;29;20051;-83
2022/06/08 10:56:36;;;;;;;3.22;2.15;;;20.30;99.90;;;;;;4955595;29;20062;-82
2022/06/08 10:59:08;;;;;;;4.15;2.33;;;20.20;99.90;;;;;;4933239;29;20540;-81
2022/06/08 11:01:54;;;;;;;5.20;2.47;;;20.20;99.90;;;;;;4952416;29;20096;-81
2022/06/08 11:07:03;;;;;;;3.30;2.13;;;20.20;99.90;;;;;;4955187;29;20051;-81
2022/06/08 11:09:34;;;;;;;4.30;2.65;;;20.00;99.90;;;;;;4979913;28;20083;-82
2022/06/08 11:12:13;;;;;;;2.80;2.30;;;20.00;99.90;;;;;;5016675;28;20053;-81
2022/06/08 11:15:01;;;;;;;8.10;3.45;;;20.00;99.90;;;;;;5016938;28;20041;-81
2022/06/08 11:17:54;;;;;;;6.10;3.42;;;19.40;99.90;;;;;;5015993;28;20510;-81
2022/06/08 11:20:29;;;;;;;3.45;2.85;;;19.40;99.90;;;;;;5000719;28;20057;-81
2022/06/08 11:23:31;;;;;;;4.30;2.88;;;19.10;99.90;;;;;;5017580;28;20057;-82
2022/06/08 11:26:25;;;;;;;4.38;3.60;;;19.00;99.90;;;;;;5033810;28;20107;-81
2022/06/08 11:28:53;;;;;;;5.47;3.28;;;;;;;;;;5017019;28;20144;-80
2022/06/08 11:31:28;;;;;;;5.05;3.85;;;18.70;99.90;;;;;;5034275;28;20124;-80
2022/06/08 11:34:00;;;;;;;4.32;3.72;;;;;;;;;;5016990;28;20042;-80
2022/06/08 11:37:05;;;;;;;9.15;4.88;;;18.70;99.90;;;;;;5079585;28;20056;-80
2022/06/08 11:39:36;;;;;;;;;;;18.70;99.90;;;;;;4997546;28;20061;-80
2022/06/08 11:42:30;;;;;;;5.45;4.95;;;18.50;99.90;;;;;;5014141;28;19922;-80
2022/06/08 11:44:59;;;;;;;;;;;18.70;99.90;;;;;;4981419;28;20050;-80
2022/06/08 11:47:48;;;;;;;7.00;5.10;;;18.60;99.90;;;;;;5012849;28;19922;-80
2022/06/08 11:50:23;;;;;;;5.97;4.97;;;18.60;99.90;;;;;;5012586;28;20132;-81
2022/06/08 11:53:01;;;;;;;6.72;5.28;;;18.50;99.90;;;;;;5012421;28;20042;-81
2022/06/08 11:55:29;;;;;;;9.10;6.03;;;18.50;99.90;;;;;;4979850;28;20061;-81
2022/06/08 11:57:55;;;;;;;7.22;5.40;;;;;;;;;;4996195;28;20519;-80
2022/06/08 12:00:22;;;;;;;7.47;5.50;;;;;;;;;;5012740;28;20467;-81
2022/06/08 12:02:55;;;;;;;8.27;5.90;;;18.40;99.90;;;;;;5012372;28;20058;-82
2022/06/08 12:05:25;;;;;;;;;;;18.50;99.90;;;;;;4980253;28;20118;-81
2022/06/08 12:08:04;;;;;;;6.82;5.53;;;18.50;99.90;;;;;;4995570;28;19968;-81
2022/06/08 12:10:33;;;;;;;6.57;4.85;;;18.60;99.90;;;;;;4996689;28;20053;-81
2022/06/08 12:13:00;;;;;;;7.85;5.45;;;18.60;99.90;;;;;;4979484;28;20454;-81
2022/06/08 12:15:38;;;;;;;8.48;5.90;;;18.50;99.90;;;;;;4997247;28;20401;-81
2022/06/08 12:18:23;;;;;;;7.93;6.13;;;18.50;99.90;;;;;;5076079;28;20044;-81
2022/06/08 12:21:03;;;;;;;7.72;5.80;;;18.50;99.90;;;;;;5059277;28;20044;-80
2022/06/08 12:23:36;;;;;;;7.63;5.80;;;18.40;99.90;;;;;;5075718;28;20052;-81
2022/06/08 12:26:02;;;;;;;7.40;5.13;;;18.90;99.90;;;;;;5059042;28;20052;-81
2022/06/08 12:28:28;;;;;;;7.88;5.88;;;;;;;;;;5075481;28;20117;-81
2022/06/08 12:30:57;;;;;;;9.48;5.57;;;19.00;99.90;;;;;;5075917;28;20542;-81
2022/06/08 12:33:29;;;;;;;8.90;5.13;;;19.40;99.90;;;;;;5059234;28;20059;-81
2022/06/08 12:36:06;;;;;;;6.57;5.72;;;19.30;99.90;;;;;;5075592;28;20055;-82
2022/06/08 12:38:34;;;;;;;8.60;5.22;;;19.70;99.90;;;;;;5059181;28;20548;-81
2022/06/08 12:41:01;;;;;;;5.93;5.32;;;;;;;;;;5078262;28;20048;-87
2022/06/08 12:43:46;;;;;;;9.82;5.65;;;19.40;99.90;;;;;;5078499;28;20629;-90
2022/06/08 12:46:15;;;;;;;8.75;6.10;;;;;;;;;;5079210;28;20104;-83
2022/06/08 12:48:44;;;;;;;10.18;5.95;;;19.70;99.90;;;;;;5077538;28;20047;-81
2022/06/08 12:51:34;;;;;;;15.77;4.68;;;19.70;99.90;;;;;;5062002;28;20043;-84
2022/06/08 12:54:18;;;;;;;7.68;4.90;;;19.90;99.90;;;;;;5061658;28;20044;-83
2022/06/08 12:56:47;;;;;;;7.00;4.35;;;19.90;99.90;;;;;;5079973;28;20101;-84
2022/06/08 12:59:13;;;;;;;7.13;4.60;;;19.80;99.90;;;;;;5080065;28;20075;-82
2022/06/08 13:01:44;;;;;;;6.78;3.95;;;19.70;99.90;;;;;;5063493;28;20040;-85
2022/06/08 13:04:16;;;;;;;10.50;5.65;;;19.70;99.90;;;;;;5063456;28;20055;-85
2022/06/08 13:06:42;;;;;;;7.53;5.22;;;;;;;;;;5061504;28;20126;-83
2022/06/08 13:09:18;;;;;;;8.82;4.80;;;19.50;99.90;;;;;;5078148;28;20124;-82
2022/06/08 13:11:46;;;;;;;8.80;5.43;;;19.40;99.90;;;;;;5062648;28;20041;-83
2022/06/08 13:14:16;;;;;;;6.00;4.95;;;19.60;99.90;;;;;;5078808;28;20525;-81
2022/06/08 13:16:44;;;;;;;7.72;5.53;;;;;;;;;;5060649;28;20036;-84
2022/06/08 13:19:12;;;;;;;6.50;3.50;;;19.30;99.90;;;;;;5063917;28;20047;-93
2022/06/08 13:21:40;;;;;;;7.00;3.50;;;19.30;99.90;;;;;;5063742;28;20044;-86
2022/06/08 13:24:06;;;;;;;5.45;4.40;;;19.30;99.90;;;;;;5081777;28;20091;-88
2022/06/08 13:26:34;;;;;;;6.97;5.30;;;19.10;99.90;;;;;;5064591;28;20047;-89
2022/06/08 13:29:01;;;;;;;12.75;7.15;;;;;;;;;;5065073;28;20437;-93
2022/06/08 13:31:28;;;;;;;10.73;9.02;;;;;;;;;;5081904;28;20071;-86
2022/06/08 13:34:04;;;;;;;12.10;9.30;;;19.10;99.90;;;;;;5081393;28;20086;-82
2022/06/08 13:36:39;;;;;;;14.73;10.65;;;18.90;99.90;;;;;;5100257;28;20092;-88
2022/06/08 13:39:08;;;;;;;12.95;11.60;;;18.70;99.90;;;;;;5100470;28;20036;-85
2022/06/08 13:41:36;;;;;;;16.60;13.27;;;18.60;99.90;;;;;;5086152;28;20044;-84
2022/06/08 13:44:02;;;;;;;14.98;12.35;;;;;;;;;;5084763;28;20082;-86
2022/06/08 13:46:33;;;;;;;14.43;12.60;;;18.90;99.90;;;;;;5103880;28;20043;-84
2022/06/08 13:49:02;;;;;;;16.55;12.68;;;18.60;99.90;;;;;;5087447;28;20051;-86
2022/06/08 13:51:28;;;;;;;12.38;11.05;;;;;;;;;;5087694;28;20072;-89
2022/06/08 13:53:54;;;;;;;14.43;10.68;;;18.50;99.90;;;;;;5097050;28;20051;-87
2022/06/08 13:56:22;;;;;;;13.88;10.40;;;18.30;99.90;;;;;;5078564;28;20511;-88
2022/06/08 13:58:49;;;;;;;13.40;11.25;;;18.40;99.90;;;;;;5079283;28;20040;-89
2022/06/08 14:01:30;;;;;;;12.63;10.40;;;17.90;99.90;;;;;;5078796;28;20381;-84
2022/06/08 14:03:56;;;;;;;11.50;9.25;;;;;;;;;;5078417;28;20048;-87
2022/06/08 14:14:56;;;;;;;10.85;9.32;;;;;;;;;;5078375;28;20047;-89
2022/06/08 14:17:23;;;;;;;10.55;9.10;;;18.10;99.90;;;;;;5079249;28;20419;-89
2022/06/08 14:19:52;;;;;;;10.43;8.70;;;18.10;99.90;;;;;;5061530;28;20480;-88
2022/06/08 14:22:22;;;;;;;11.50;8.55;;;18.00;99.90;;;;;;5062981;28;20056;-88
2022/06/08 14:24:51;;;;;;;9.18;8.02;;;17.60;99.90;;;;;;5063522;28;20218;-88
2022/06/08 14:27:19;;;;;;;10.20;8.30;;;18.00;99.90;;;;;;5063870;28;20048;-88
2022/06/08 14:29:46;;;;;;;10.48;8.60;;;17.90;99.90;;;;;;5063550;28;20119;-86
2022/06/08 14:32:19;;;;;;;9.00;8.10;;;17.80;99.90;;;;;;5064396;28;20059;-89
2022/06/08 14:34:47;;;;;;;10.25;7.63;;;17.90;99.90;;;;;;5064439;28;20040;-89